Time;durP1;ratioP1;P1;durP2;ratioP2;P2;SDS_P1;SDS_P2;PMS_P1;PMS_P2;Temp;Humidity;BMP_temperature;BMP_pressure;BME280_temperature;BME280_humidity;BME280_pressure;Samples;Min_cycle;Max_cycle;Signal;HPM_P1;HPM_P2
2024/02/18 00:01:40;;;;;;;;;;;;;;;5.41;100.00;98012.35;108146;1283;23859;-86
2024/02/18 00:04:06;;;;;;;;;;;;;;;5.39;100.00;98014.56;108242;1280;22567;-87
2024/02/18 00:06:33;;;;;;;;;;;;;;;5.36;99.91;98012.76;108095;1274;26453;-86
2024/02/18 00:08:59;;;;;;;;;;;;;;;5.29;99.92;98021.14;108156;1285;22504;-87
2024/02/18 00:11:26;;;;;;;;;;;;;;;5.29;100.00;98019.96;108040;1286;22574;-87
2024/02/18 00:13:54;;;;;;;;;;;;;;;5.27;100.00;98025.39;107990;1288;22528;-87
2024/02/18 00:16:20;;;;;;;;;;;;;;;5.22;99.70;98030.08;108012;1287;22539;-86
2024/02/18 00:18:47;;;;;;;;;;;;;;;5.21;100.00;98025.51;108079;1287;22532;-87
2024/02/18 00:21:17;;;;;;;;;;;;;;;5.23;100.00;98027.30;108134;1287;22514;-87
2024/02/18 00:23:44;;;;;;;;;;;;;;;5.24;99.95;98029.39;108001;1288;25213;-86
2024/02/18 00:26:11;;;;;;;;;;;;;;;5.21;100.00;98030.34;108154;1287;25391;-87
2024/02/18 00:28:38;;;;;;;;;;;;;;;5.19;100.00;98031.27;108080;1284;22543;-87
2024/02/18 00:31:04;;;;;;;;;;;;;;;5.18;100.00;98033.42;108020;1283;22523;-86
2024/02/18 00:33:31;;;;;;;;;;;;;;;5.17;100.00;98034.73;108036;1286;22507;-86
2024/02/18 00:35:57;;;;;;;;;;;;;;;5.13;99.80;98031.58;108135;1287;22539;-87
2024/02/18 00:38:27;;;;;;;;;;;;;;;5.11;99.97;98032.73;108035;1284;22520;-87
2024/02/18 00:40:54;;;;;;;;;;;;;;;5.10;99.97;98034.84;108018;1283;23434;-87
2024/02/18 00:43:20;;;;;;;;;;;;;;;5.11;100.00;98035.30;108056;1283;25213;-87
2024/02/18 00:45:48;;;;;;;;;;;;;;;5.11;100.00;98037.69;108073;1282;25108;-87
2024/02/18 00:48:18;;;;;;;;;;;;;;;5.07;99.30;98043.45;108176;1280;24810;-87
2024/02/18 00:50:44;;;;;;;;;;;;;;;5.00;99.03;98044.14;108067;1288;22511;-86
2024/02/18 00:53:10;;;;;;;;;;;;;;;4.98;99.43;98046.37;108040;1288;22507;-87
2024/02/18 00:55:42;;;;;;;;;;;;;;;4.96;99.41;98044.73;108077;1287;22957;-87
2024/02/18 00:58:12;;;;;;;;;;;;;;;4.94;99.21;98046.98;109495;1288;26429;-85
2024/02/18 01:00:39;;;;;;;;;;;;;;;4.91;99.72;98045.84;108083;1284;22504;-86
2024/02/18 01:03:06;;;;;;;;;;;;;;;4.85;98.92;98046.19;108102;1283;22566;-86
2024/02/18 01:05:34;;;;;;;;;;;;;;;4.82;99.41;98048.45;108027;1283;22560;-87
2024/02/18 01:08:00;;;;;;;;;;;;;;;4.87;99.98;98049.86;108081;1283;22527;-87
2024/02/18 01:10:27;;;;;;;;;;;;;;;4.91;100.00;98047.05;108198;1287;23967;-87
2024/02/18 01:12:54;;;;;;;;;;;;;;;4.91;99.83;98051.65;108054;1288;23984;-86
2024/02/18 01:15:20;;;;;;;;;;;;;;;4.90;99.77;98046.55;107989;1285;22547;-86
2024/02/18 01:17:47;;;;;;;;;;;;;;;4.92;99.91;98048.35;107987;1289;22527;-86
2024/02/18 01:20:13;;;;;;;;;;;;;;;4.92;99.70;98045.77;108185;1280;22567;-87
2024/02/18 01:22:40;;;;;;;;;;;;;;;4.90;99.32;98050.17;108046;1283;22513;-86
2024/02/18 01:25:08;;;;;;;;;;;;;;;4.91;99.83;98046.68;108166;1280;22563;-87
2024/02/18 01:27:34;;;;;;;;;;;;;;;4.92;100.00;98042.14;108122;1288;22518;-86
2024/02/18 01:30:01;;;;;;;;;;;;;;;4.91;100.00;98045.48;108079;1287;22654;-86
2024/02/18 01:32:27;;;;;;;;;;;;;;;4.91;100.00;98043.40;108073;1286;23525;-86
2024/02/18 01:34:55;;;;;;;;;;;;;;;4.94;100.00;98044.38;108023;1283;22926;-87
2024/02/18 01:37:21;;;;;;;;;;;;;;;4.96;100.00;98044.25;108038;1288;22759;-86
2024/02/18 01:39:47;;;;;;;;;;;;;;;4.95;99.96;98047.91;108102;1287;23651;-86
2024/02/18 01:42:14;;;;;;;;;;;;;;;4.95;100.00;98048.08;108153;1281;22546;-87
2024/02/18 01:44:40;;;;;;;;;;;;;;;4.96;99.94;98046.67;108151;1287;22540;-87
2024/02/18 01:47:07;;;;;;;;;;;;;;;4.94;99.92;98049.18;107996;1289;22508;-86
2024/02/18 01:49:34;;;;;;;;;;;;;;;4.92;100.00;98049.69;108007;1289;22548;-86
2024/02/18 01:52:01;;;;;;;;;;;;;;;4.93;100.00;98054.63;108010;1289;22540;-87
2024/02/18 01:54:33;;;;;;;;;;;;;;;4.95;100.00;98058.90;107995;1289;24049;-86
2024/02/18 01:57:03;;;;;;;;;;;;;;;4.93;100.00;98056.01;109502;1289;22353;-87
2024/02/18 01:59:30;;;;;;;;;;;;;;;4.90;100.00;98056.23;109486;1283;22440;-87
2024/02/18 02:01:56;;;;;;;;;;;;;;;4.87;100.00;98055.72;109453;1283;22449;-87
2024/02/18 02:04:23;;;;;;;;;;;;;;;4.87;100.00;98057.21;109329;1290;22417;-87
2024/02/18 02:06:50;;;;;;;;;;;;;;;4.89;100.00;98056.43;108465;1289;22510;-86
2024/02/18 02:09:16;;;;;;;;;;;;;;;4.93;100.00;98052.04;107963;1289;22508;-86
2024/02/18 02:11:42;;;;;;;;;;;;;;;4.95;100.00;98055.15;108136;1283;22574;-86
2024/02/18 02:14:09;;;;;;;;;;;;;;;4.95;100.00;98056.85;107972;1277;22522;-86
2024/02/18 02:16:37;;;;;;;;;;;;;;;4.95;100.00;98055.11;107980;1289;22513;-86
2024/02/18 02:19:04;;;;;;;;;;;;;;;4.95;100.00;98054.31;107993;1288;22514;-86
2024/02/18 02:21:30;;;;;;;;;;;;;;;4.93;100.00;98055.45;107962;1283;22507;-86
2024/02/18 02:23:57;;;;;;;;;;;;;;;4.92;100.00;98057.44;107984;1283;22547;-86
2024/02/18 02:26:24;;;;;;;;;;;;;;;4.88;99.76;98055.47;108000;1283;22532;-86
2024/02/18 02:29:11;;;;;;;;;;;;;;;4.82;99.53;98061.16;107953;1283;22548;-86
2024/02/18 02:31:41;;;;;;;;;;;;;;;4.79;99.98;98056.77;107905;1287;22510;-86
2024/02/18 02:34:07;;;;;;;;;;;;;;;4.77;99.22;98061.39;108017;1280;22520;-86
2024/02/18 02:36:34;;;;;;;;;;;;;;;4.75;99.12;98065.08;108012;1289;22531;-86
2024/02/18 02:39:01;;;;;;;;;;;;;;;4.76;99.72;98062.27;108146;1283;22547;-86
2024/02/18 02:41:28;;;;;;;;;;;;;;;4.76;99.38;98066.91;108004;1289;22526;-86
2024/02/18 02:43:54;;;;;;;;;;;;;;;4.73;98.78;98061.31;107994;1283;23014;-87
2024/02/18 02:46:21;;;;;;;;;;;;;;;4.71;99.15;98063.31;108044;1287;23227;-86
2024/02/18 02:48:48;;;;;;;;;;;;;;;4.68;98.98;98061.58;108140;1288;23915;-86
2024/02/18 02:51:14;;;;;;;;;;;;;;;4.69;99.11;98056.92;107990;1288;22525;-86
2024/02/18 02:53:40;;;;;;;;;;;;;;;4.70;99.11;98056.30;108008;1289;22524;-86
2024/02/18 02:56:07;;;;;;;;;;;;;;;4.70;99.47;98059.05;108125;1283;22515;-86
2024/02/18 02:58:34;;;;;;;;;;;;;;;4.70;99.22;98067.34;107999;1289;24771;-86
2024/02/18 03:01:00;;;;;;;;;;;;;;;4.67;99.00;98068.55;107991;1288;22536;-86
2024/02/18 03:03:27;;;;;;;;;;;;;;;4.66;99.24;98065.69;108159;1287;24526;-86
2024/02/18 03:05:54;;;;;;;;;;;;;;;4.64;99.59;98076.16;108084;1283;22613;-86
2024/02/18 03:08:20;;;;;;;;;;;;;;;4.62;99.24;98073.92;108038;1287;22508;-86
2024/02/18 03:10:47;;;;;;;;;;;;;;;4.63;99.46;98069.88;107969;1283;23104;-86
2024/02/18 03:13:13;;;;;;;;;;;;;;;4.64;99.50;98074.96;108000;1289;22520;-86
2024/02/18 03:15:40;;;;;;;;;;;;;;;4.65;99.81;98071.06;108005;1287;22498;-86
2024/02/18 03:18:08;;;;;;;;;;;;;;;4.64;99.82;98068.42;108159;1280;22503;-86
2024/02/18 03:20:35;;;;;;;;;;;;;;;4.62;99.82;98069.05;108141;1280;22531;-86
2024/02/18 03:23:01;;;;;;;;;;;;;;;4.61;99.59;98069.00;108020;1289;23882;-86
2024/02/18 03:25:28;;;;;;;;;;;;;;;4.61;99.92;98062.33;108148;1287;22521;-87
2024/02/18 03:27:54;;;;;;;;;;;;;;;4.60;99.72;98068.20;108104;1288;23189;-86
2024/02/18 03:30:20;;;;;;;;;;;;;;;4.56;99.31;98075.20;108164;1287;22668;-87
2024/02/18 03:32:47;;;;;;;;;;;;;;;4.52;99.80;98079.36;108062;1288;22517;-86
2024/02/18 03:35:14;;;;;;;;;;;;;;;4.49;99.12;98081.81;108172;1287;22508;-86
2024/02/18 03:37:40;;;;;;;;;;;;;;;4.42;96.63;98082.95;108011;1288;22555;-86
2024/02/18 03:40:08;;;;;;;;;;;;;;;4.38;97.49;98082.16;108012;1288;22525;-86
2024/02/18 03:42:34;;;;;;;;;;;;;;;4.39;97.86;98077.82;108068;1288;22527;-86
2024/02/18 03:45:02;;;;;;;;;;;;;;;4.41;97.40;98072.92;108169;1287;22555;-86
2024/02/18 03:47:29;;;;;;;;;;;;;;;4.42;97.90;98074.58;108138;1288;22615;-86
2024/02/18 03:49:56;;;;;;;;;;;;;;;4.40;97.24;98076.60;108169;1287;22552;-86
2024/02/18 03:52:22;;;;;;;;;;;;;;;4.38;97.13;98074.83;108016;1284;22953;-86
2024/02/18 03:54:48;;;;;;;;;;;;;;;4.33;96.52;98075.13;107966;1288;23922;-87
2024/02/18 03:57:15;;;;;;;;;;;;;;;4.31;96.52;98073.08;108058;1276;25212;-87
2024/02/18 03:59:41;;;;;;;;;;;;;;;4.33;96.81;98073.95;108015;1284;22534;-86
2024/02/18 04:02:08;;;;;;;;;;;;;;;4.35;96.98;98069.69;108013;1286;22504;-87
2024/02/18 04:04:34;;;;;;;;;;;;;;;4.36;96.80;98071.50;108195;1280;22689;-87
2024/02/18 04:07:01;;;;;;;;;;;;;;;4.36;97.45;98070.33;108159;1281;22508;-87
2024/02/18 04:09:28;;;;;;;;;;;;;;;4.37;97.74;98074.48;108030;1284;22509;-86
2024/02/18 04:11:55;;;;;;;;;;;;;;;4.37;97.15;98074.02;108012;1281;25310;-87
2024/02/18 04:14:21;;;;;;;;;;;;;;;4.31;94.76;98073.73;108046;1288;25270;-86
2024/02/18 04:16:49;;;;;;;;;;;;;;;4.25;95.02;98079.26;107984;1277;22543;-86
2024/02/18 04:19:15;;;;;;;;;;;;;;;4.21;93.93;98074.52;108147;1287;22528;-87
2024/02/18 04:21:41;;;;;;;;;;;;;;;4.16;94.04;98070.41;108211;1287;22533;-86
2024/02/18 04:24:08;;;;;;;;;;;;;;;4.18;96.12;98063.09;108026;1284;22504;-86
2024/02/18 04:26:34;;;;;;;;;;;;;;;4.19;95.54;98063.39;108157;1287;22538;-86
2024/02/18 04:29:01;;;;;;;;;;;;;;;4.17;94.67;98071.73;108057;1287;23241;-86
2024/02/18 04:31:27;;;;;;;;;;;;;;;4.14;93.92;98071.03;108055;1287;22536;-87
2024/02/18 04:33:54;;;;;;;;;;;;;;;4.19;95.71;98072.98;108097;1287;22513;-87
2024/02/18 04:36:20;;;;;;;;;;;;;;;4.23;96.24;98075.30;108089;1284;22501;-87
2024/02/18 04:38:47;;;;;;;;;;;;;;;4.24;95.90;98077.63;108197;1275;24876;-86
2024/02/18 04:41:14;;;;;;;;;;;;;;;4.23;96.02;98076.67;108166;1277;25207;-87
2024/02/18 04:43:40;;;;;;;;;;;;;;;4.21;95.21;98075.22;108028;1281;22511;-87
2024/02/18 04:46:07;;;;;;;;;;;;;;;4.20;96.01;98078.20;108043;1287;22504;-86
2024/02/18 04:48:37;;;;;;;;;;;;;;;4.18;96.01;98078.34;108022;1288;23814;-88
2024/02/18 04:51:03;;;;;;;;;;;;;;;4.16;96.12;98076.59;108150;1287;22511;-87
2024/02/18 04:53:30;;;;;;;;;;;;;;;4.16;96.65;98079.72;108044;1288;22505;-86
2024/02/18 04:55:56;;;;;;;;;;;;;;;4.13;96.56;98084.83;108029;1287;22719;-86
2024/02/18 04:58:23;;;;;;;;;;;;;;;4.13;96.96;98082.48;108022;1287;23863;-86
2024/02/18 05:00:50;;;;;;;;;;;;;;;4.12;96.86;98081.52;108137;1281;25394;-86
2024/02/18 05:03:16;;;;;;;;;;;;;;;4.13;97.04;98082.66;108147;1286;25689;-86
2024/02/18 05:05:44;;;;;;;;;;;;;;;4.11;97.13;98082.23;108054;1282;23896;-86
2024/02/18 05:08:10;;;;;;;;;;;;;;;4.10;97.37;98082.83;108033;1289;22506;-86
2024/02/18 05:10:37;;;;;;;;;;;;;;;4.10;97.93;98087.64;108050;1287;24159;-86
2024/02/18 05:13:03;;;;;;;;;;;;;;;4.10;97.83;98084.02;108139;1281;25307;-86
2024/02/18 05:15:30;;;;;;;;;;;;;;;4.09;97.55;98083.23;108029;1287;23783;-86
2024/02/18 05:17:56;;;;;;;;;;;;;;;4.09;97.14;98083.96;108043;1287;22525;-86
2024/02/18 05:20:23;;;;;;;;;;;;;;;4.06;96.51;98084.44;108058;1287;22513;-87
2024/02/18 05:22:50;;;;;;;;;;;;;;;4.04;96.64;98085.29;108053;1280;23231;-87
2024/02/18 05:25:17;;;;;;;;;;;;;;;4.04;96.56;98086.10;108010;1287;23807;-87
2024/02/18 05:27:43;;;;;;;;;;;;;;;4.04;96.33;98082.52;107997;1281;22538;-86
2024/02/18 05:30:11;;;;;;;;;;;;;;;4.04;96.58;98079.27;108049;1287;23925;-86
2024/02/18 05:32:37;;;;;;;;;;;;;;;4.05;96.28;98081.97;108023;1289;22519;-86
2024/02/18 05:35:04;;;;;;;;;;;;;;;4.03;96.12;98083.48;107968;1288;24236;-86
2024/02/18 05:37:30;;;;;;;;;;;;;;;4.02;95.85;98081.15;108201;1281;22522;-87
2024/02/18 05:39:57;;;;;;;;;;;;;;;4.00;95.84;98080.40;108035;1284;22529;-86
2024/02/18 05:42:23;;;;;;;;;;;;;;;4.00;96.38;98081.76;108055;1284;23341;-87
2024/02/18 05:44:50;;;;;;;;;;;;;;;4.00;95.94;98079.54;108030;1287;22508;-86
2024/02/18 05:47:17;;;;;;;;;;;;;;;4.00;95.37;98080.75;108104;1286;22551;-87
2024/02/18 05:49:43;;;;;;;;;;;;;;;3.99;95.38;98080.65;108186;1287;23291;-87
2024/02/18 05:52:10;;;;;;;;;;;;;;;3.99;95.22;98082.38;108051;1289;23708;-87
2024/02/18 05:54:37;;;;;;;;;;;;;;;3.97;95.07;98086.80;108009;1289;25247;-87
2024/02/18 05:57:04;;;;;;;;;;;;;;;3.95;94.83;98087.06;108150;1289;22663;-87
2024/02/18 05:59:31;;;;;;;;;;;;;;;3.94;95.69;98094.30;108077;1287;22518;-87
2024/02/18 06:01:57;;;;;;;;;;;;;;;3.95;96.10;98093.45;108136;1287;22618;-87
2024/02/18 06:04:24;;;;;;;;;;;;;;;3.95;96.09;98094.15;108092;1284;22514;-87
2024/02/18 06:06:50;;;;;;;;;;;;;;;3.94;96.00;98090.42;108025;1288;22514;-87
2024/02/18 06:09:16;;;;;;;;;;;;;;;3.95;96.69;98090.90;108042;1287;22508;-87
2024/02/18 06:11:43;;;;;;;;;;;;;;;3.93;96.25;98091.98;108060;1284;22507;-87
2024/02/18 06:14:09;;;;;;;;;;;;;;;3.92;96.39;98093.96;108062;1283;23145;-87
2024/02/18 06:16:35;;;;;;;;;;;;;;;3.91;95.89;98094.67;108168;1287;22543;-87
2024/02/18 06:19:02;;;;;;;;;;;;;;;3.91;95.47;98096.58;108034;1289;22507;-87
2024/02/18 06:21:28;;;;;;;;;;;;;;;3.89;95.38;98095.80;107991;1289;23818;-87
2024/02/18 06:23:56;;;;;;;;;;;;;;;3.88;94.80;98098.77;107991;1288;23114;-87
2024/02/18 06:26:23;;;;;;;;;;;;;;;3.88;95.35;98094.19;108040;1288;22539;-87
2024/02/18 06:28:49;;;;;;;;;;;;;;;3.89;95.36;98095.86;108017;1287;22514;-87
2024/02/18 06:31:17;;;;;;;;;;;;;;;3.89;95.41;98096.00;107999;1288;22554;-87
2024/02/18 06:33:44;;;;;;;;;;;;;;;3.91;95.47;98100.19;108044;1289;22555;-87
2024/02/18 06:36:10;;;;;;;;;;;;;;;3.91;95.07;98100.19;108049;1286;22519;-86
2024/02/18 06:38:40;;;;;;;;;;;;;;;3.90;94.94;98101.59;108015;1289;22527;-86
2024/02/18 06:41:06;;;;;;;;;;;;;;;3.91;94.45;98105.16;108014;1288;22554;-86
2024/02/18 06:43:32;;;;;;;;;;;;;;;3.91;94.60;98102.73;108128;1289;22512;-86
2024/02/18 06:45:59;;;;;;;;;;;;;;;3.93;94.64;98103.19;108017;1287;22535;-86
2024/02/18 06:48:26;;;;;;;;;;;;;;;3.91;94.71;98104.98;108064;1287;22519;-86
2024/02/18 06:50:52;;;;;;;;;;;;;;;3.93;95.15;98108.44;108133;1280;22512;-86
2024/02/18 06:53:19;;;;;;;;;;;;;;;3.97;93.86;98107.54;108136;1288;22495;-87
2024/02/18 06:55:46;;;;;;;;;;;;;;;3.97;92.95;98111.50;108046;1283;22526;-86
2024/02/18 06:58:14;;;;;;;;;;;;;;;3.97;92.46;98108.90;108075;1289;22524;-87
2024/02/18 07:00:41;;;;;;;;;;;;;;;3.98;92.03;98110.02;108043;1287;22510;-86
2024/02/18 07:03:07;;;;;;;;;;;;;;;4.01;92.40;98112.42;108169;1284;27755;-87
2024/02/18 07:05:34;;;;;;;;;;;;;;;4.02;92.20;98115.20;108135;1287;22552;-86
2024/02/18 07:08:00;;;;;;;;;;;;;;;4.04;91.42;98113.54;108021;1277;22526;-87
2024/02/18 07:10:28;;;;;;;;;;;;;;;4.06;91.24;98109.34;108052;1287;22537;-87
2024/02/18 07:12:54;;;;;;;;;;;;;;;4.05;91.11;98109.86;108129;1284;25434;-86
2024/02/18 07:15:21;;;;;;;;;;;;;;;4.08;90.79;98111.14;108073;1287;26176;-86
2024/02/18 07:17:47;;;;;;;;;;;;;;;4.11;90.95;98114.16;108044;1289;22511;-87
2024/02/18 07:20:16;;;;;;;;;;;;;;;4.15;91.24;98115.92;108040;1281;23104;-86
2024/02/18 07:22:46;;;;;;;;;;;;;;;4.17;91.16;98118.05;108033;1287;22503;-86
2024/02/18 07:25:13;;;;;;;;;;;;;;;4.18;89.68;98123.30;108155;1287;22519;-87
2024/02/18 07:27:39;;;;;;;;;;;;;;;4.17;90.07;98121.27;108061;1287;22679;-87
2024/02/18 07:30:06;;;;;;;;;;;;;;;4.19;89.84;98121.14;108092;1287;22548;-87
2024/02/18 07:32:32;;;;;;;;;;;;;;;4.24;89.65;98126.04;108083;1287;25393;-87
2024/02/18 07:34:59;;;;;;;;;;;;;;;4.24;88.42;98125.00;108093;1287;22513;-87
2024/02/18 07:37:25;;;;;;;;;;;;;;;4.23;88.90;98127.27;108001;1288;22549;-87
2024/02/18 07:39:52;;;;;;;;;;;;;;;4.26;88.70;98133.13;108053;1288;22512;-87
2024/02/18 07:42:18;;;;;;;;;;;;;;;4.24;87.61;98133.23;108176;1286;22538;-87
2024/02/18 07:44:45;;;;;;;;;;;;;;;4.28;88.33;98130.58;108039;1287;22559;-87
2024/02/18 07:47:12;;;;;;;;;;;;;;;4.32;88.57;98127.69;108121;1286;24453;-86
2024/02/18 07:49:38;;;;;;;;;;;;;;;4.36;88.89;98126.91;108174;1288;22514;-86
2024/02/18 07:52:05;;;;;;;;;;;;;;;4.33;87.76;98130.39;108147;1286;22527;-87
2024/02/18 07:54:32;;;;;;;;;;;;;;;4.31;87.71;98131.69;107976;1272;22498;-87
2024/02/18 07:56:58;;;;;;;;;;;;;;;4.30;86.95;98135.04;108139;1287;22524;-87
2024/02/18 07:59:27;;;;;;;;;;;;;;;4.33;87.59;98135.19;108008;1288;22524;-87
2024/02/18 08:01:53;;;;;;;;;;;;;;;4.37;88.19;98136.66;108025;1289;22533;-86
2024/02/18 08:04:20;;;;;;;;;;;;;;;4.39;88.06;98135.29;108031;1288;24218;-87
2024/02/18 08:06:46;;;;;;;;;;;;;;;4.42;89.28;98136.79;107989;1288;22504;-86
2024/02/18 08:09:12;;;;;;;;;;;;;;;4.44;88.32;98133.77;108139;1286;23899;-87
2024/02/18 08:11:39;;;;;;;;;;;;;;;4.44;88.92;98133.23;108153;1287;25409;-87
2024/02/18 08:14:05;;;;;;;;;;;;;;;4.44;87.31;98134.63;108024;1287;22544;-87
2024/02/18 08:16:32;;;;;;;;;;;;;;;4.37;86.23;98133.86;108127;1287;22507;-87
2024/02/18 08:18:58;;;;;;;;;;;;;;;4.37;86.89;98137.16;108226;1287;22551;-85
2024/02/18 08:21:24;;;;;;;;;;;;;;;4.35;85.95;98138.14;108037;1288;22545;-87
2024/02/18 08:23:51;;;;;;;;;;;;;;;4.35;87.29;98135.58;108061;1286;24264;-87
2024/02/18 08:26:20;;;;;;;;;;;;;;;4.40;87.61;98133.89;108069;1289;24775;-86
2024/02/18 08:28:47;;;;;;;;;;;;;;;4.44;87.24;98133.98;108143;1287;22515;-86
2024/02/18 08:31:13;;;;;;;;;;;;;;;4.43;86.51;98136.91;108073;1271;22539;-86
2024/02/18 08:33:40;;;;;;;;;;;;;;;4.45;87.54;98142.80;108120;1287;22522;-86
2024/02/18 08:36:06;;;;;;;;;;;;;;;4.46;88.37;98153.01;108142;1283;22530;-88
2024/02/18 08:38:33;;;;;;;;;;;;;;;4.49;88.39;98147.84;108150;1287;22534;-87
2024/02/18 08:40:59;;;;;;;;;;;;;;;4.49;88.42;98141.35;108073;1283;22511;-87
2024/02/18 08:43:26;;;;;;;;;;;;;;;4.50;89.19;98136.45;108157;1283;26369;-86
2024/02/18 08:45:53;;;;;;;;;;;;;;;4.51;88.86;98136.73;108177;1284;25223;-87
2024/02/18 08:48:19;;;;;;;;;;;;;;;4.51;88.69;98136.20;108055;1287;22552;-87
2024/02/18 08:50:46;;;;;;;;;;;;;;;4.45;87.60;98137.30;108177;1281;22515;-86
2024/02/18 08:53:12;;;;;;;;;;;;;;;4.45;89.13;98137.98;108041;1287;26599;-86
2024/02/18 08:55:39;;;;;;;;;;;;;;;4.48;89.50;98143.13;108162;1281;23126;-87
2024/02/18 08:58:05;;;;;;;;;;;;;;;4.49;90.18;98147.81;108097;1287;22539;-87
2024/02/18 09:00:32;;;;;;;;;;;;;;;4.48;89.86;98143.95;108015;1287;23872;-86
2024/02/18 09:02:59;;;;;;;;;;;;;;;4.46;89.72;98138.46;108172;1287;25233;-86
2024/02/18 09:05:27;;;;;;;;;;;;;;;4.45;89.56;98139.40;109539;1287;22436;-87
2024/02/18 09:07:53;;;;;;;;;;;;;;;4.44;88.91;98146.97;109505;1288;23113;-87
2024/02/18 09:10:20;;;;;;;;;;;;;;;4.46;89.02;98147.55;109529;1287;22425;-85
2024/02/18 09:12:46;;;;;;;;;;;;;;;4.47;88.42;98143.19;109490;1288;22403;-85
2024/02/18 09:15:13;;;;;;;;;;;;;;;4.47;87.40;98146.80;109355;1287;22508;-84
2024/02/18 09:17:39;;;;;;;;;;;;;;;4.46;87.43;98147.34;108042;1288;22522;-86
2024/02/18 09:20:07;;;;;;;;;;;;;;;4.47;87.14;98145.77;107860;1287;276316;-86
2024/02/18 09:22:35;;;;;;;;;;;;;;;4.50;87.01;98145.88;108034;1287;22538;-86
2024/02/18 09:25:01;;;;;;;;;;;;;;;4.51;87.42;98143.92;108164;1287;24426;-87
2024/02/18 09:27:27;;;;;;;;;;;;;;;4.57;88.67;98142.54;108043;1281;22555;-87
2024/02/18 09:29:54;;;;;;;;;;;;;;;4.61;88.00;98141.73;108061;1287;22530;-87
2024/02/18 09:32:20;;;;;;;;;;;;;;;4.59;87.58;98137.77;108054;1289;22555;-86
2024/02/18 09:34:47;;;;;;;;;;;;;;;4.58;87.70;98134.73;108160;1281;22494;-87
2024/02/18 09:37:13;;;;;;;;;;;;;;;4.60;87.26;98135.45;108173;1287;22536;-86
2024/02/18 09:39:40;;;;;;;;;;;;;;;4.61;86.54;98136.42;108076;1280;22559;-87
2024/02/18 09:42:07;;;;;;;;;;;;;;;4.57;85.87;98127.43;108134;1286;22532;-86
2024/02/18 09:44:34;;;;;;;;;;;;;;;4.59;86.85;98127.99;108026;1287;22511;-87
2024/02/18 09:47:01;;;;;;;;;;;;;;;4.64;87.47;98130.06;108030;1289;22566;-86
2024/02/18 09:49:31;;;;;;;;;;;;;;;4.69;87.39;98124.52;108072;1289;26459;-87
2024/02/18 09:51:57;;;;;;;;;;;;;;;4.72;87.12;98121.09;108149;1287;22528;-86
2024/02/18 09:54:23;;;;;;;;;;;;;;;4.73;86.59;98119.64;108197;1287;23241;-87
2024/02/18 09:56:50;;;;;;;;;;;;;;;4.76;87.01;98109.86;108072;1289;26618;-86
2024/02/18 09:59:17;;;;;;;;;;;;;;;4.82;86.57;98110.47;108050;1287;22508;-87
2024/02/18 10:01:44;;;;;;;;;;;;;;;4.85;86.69;98103.91;108123;1288;22540;-87
2024/02/18 10:04:11;;;;;;;;;;;;;;;4.85;84.96;98107.16;108030;1288;22986;-87
2024/02/18 10:06:38;;;;;;;;;;;;;;;4.76;84.21;98103.98;108083;1289;22765;-87
2024/02/18 10:09:04;;;;;;;;;;;;;;;4.77;85.50;98102.59;108065;1287;25412;-86
2024/02/18 10:11:32;;;;;;;;;;;;;;;4.83;86.77;98103.69;108125;1283;22567;-87
2024/02/18 10:14:01;;;;;;;;;;;;;;;4.87;86.90;98103.75;108180;1283;25216;-87
2024/02/18 10:16:27;;;;;;;;;;;;;;;4.89;84.61;98101.76;108071;1286;22569;-87
2024/02/18 10:18:54;;;;;;;;;;;;;;;4.81;83.82;98097.97;108180;1287;22587;-87
2024/02/18 10:21:20;;;;;;;;;;;;;;;4.82;84.57;98096.85;108068;1287;22949;-87
2024/02/18 10:23:46;;;;;;;;;;;;;;;4.88;84.76;98092.53;108093;1273;23763;-87
2024/02/18 10:26:13;;;;;;;;;;;;;;;4.93;83.91;98085.54;108081;1286;22651;-87
2024/02/18 10:28:39;;;;;;;;;;;;;;;4.91;83.14;98088.06;108072;1287;25290;-86
2024/02/18 10:31:07;;;;;;;;;;;;;;;4.94;83.75;98082.90;108086;1288;22570;-87
2024/02/18 10:33:34;;;;;;;;;;;;;;;4.98;83.74;98079.16;108106;1287;22520;-86
2024/02/18 10:36:07;;;;;;;;;;;;;;;5.04;84.31;98072.58;108136;1288;25406;-87
2024/02/18 10:38:41;;;;;;;;;;;;;;;5.09;83.72;98066.00;108186;1280;22544;-87
2024/02/18 10:41:10;;;;;;;;;;;;;;;5.06;81.74;98058.16;108035;1287;22535;-86
2024/02/18 10:43:43;;;;;;;;;;;;;;;5.08;82.53;98054.61;108024;1289;23772;-87
2024/02/18 10:46:11;;;;;;;;;;;;;;;5.18;84.10;98053.87;108050;1287;25245;-87
2024/02/18 10:48:38;;;;;;;;;;;;;;;5.22;82.30;98051.70;108151;1288;22567;-87
2024/02/18 10:51:04;;;;;;;;;;;;;;;5.19;81.63;98047.79;108049;1283;22544;-88
2024/02/18 10:53:37;;;;;;;;;;;;;;;5.22;83.40;98042.13;108052;1283;22685;-87
2024/02/18 10:56:10;;;;;;;;;;;;;;;5.27;83.11;98037.63;108049;1283;24279;-87
2024/02/18 10:58:55;;;;;;;;;;;;;;;5.32;83.62;98036.75;108181;1285;22525;-87
2024/02/18 11:01:22;;;;;;;;;;;;;;;5.32;82.51;98034.85;108153;1288;22542;-87
2024/02/18 11:03:55;;;;;;;;;;;;;;;5.32;82.39;98030.05;108043;1288;22553;-87
2024/02/18 11:06:22;;;;;;;;;;;;;;;5.30;82.05;98029.63;108064;1288;24606;-86
2024/02/18 11:08:51;;;;;;;;;;;;;;;5.30;82.05;98025.86;108081;1283;22515;-87
2024/02/18 11:11:17;;;;;;;;;;;;;;;5.32;81.56;98025.39;108022;1283;24057;-87
2024/02/18 11:13:44;;;;;;;;;;;;;;;5.33;81.67;98025.81;108017;1285;25422;-87
2024/02/18 11:16:10;;;;;;;;;;;;;;;5.33;80.91;98028.05;108172;1281;24449;-86
2024/02/18 11:18:37;;;;;;;;;;;;;;;5.30;80.33;98027.27;108064;1287;22513;-87
2024/02/18 11:21:04;;;;;;;;;;;;;;;5.24;80.63;98027.00;108152;1289;22522;-87
2024/02/18 11:23:32;;;;;;;;;;;;;;;5.19;81.96;98017.05;108171;1287;22512;-87
2024/02/18 11:25:58;;;;;;;;;;;;;;;5.21;81.76;98013.48;108032;1289;22548;-87
2024/02/18 11:28:25;;;;;;;;;;;;;;;5.27;82.27;98011.35;108148;1287;22550;-88
2024/02/18 11:30:52;;;;;;;;;;;;;;;5.34;80.70;98005.66;108059;1288;22533;-88
2024/02/18 11:33:19;;;;;;;;;;;;;;;5.38;80.16;97993.69;108094;1283;22520;-88
2024/02/18 11:35:45;;;;;;;;;;;;;;;5.36;79.08;97990.23;108051;1283;22523;-88
2024/02/18 11:38:12;;;;;;;;;;;;;;;5.34;80.21;97985.72;108033;1288;22553;-88
2024/02/18 11:40:45;;;;;;;;;;;;;;;5.39;79.80;97978.15;108006;1287;25411;-88
2024/02/18 11:43:11;;;;;;;;;;;;;;;5.42;78.47;97981.38;108176;1281;25405;-88
2024/02/18 11:45:49;;;;;;;;;;;;;;;5.48;79.38;97976.33;108142;1277;22561;-88
2024/02/18 11:48:15;;;;;;;;;;;;;;;5.55;79.47;97978.02;108110;1287;24441;-88
2024/02/18 11:50:42;;;;;;;;;;;;;;;5.60;79.34;97975.11;108037;1288;22563;-88
2024/02/18 11:53:08;;;;;;;;;;;;;;;5.63;78.82;97971.41;108128;1287;22524;-87
2024/02/18 11:55:35;;;;;;;;;;;;;;;5.66;78.51;97966.59;108075;1283;22555;-87
2024/02/18 11:58:01;;;;;;;;;;;;;;;5.67;78.91;97961.69;108165;1287;22522;-87
2024/02/18 12:00:27;;;;;;;;;;;;;;;5.68;78.48;97960.69;108057;1283;22536;-88
2024/02/18 12:02:54;;;;;;;;;;;;;;;5.68;78.05;97951.29;108196;1282;22505;-87
2024/02/18 12:05:22;;;;;;;;;;;;;;;5.67;77.96;97944.11;108049;1287;24414;-87
2024/02/18 12:07:49;;;;;;;;;;;;;;;5.70;77.57;97940.98;108090;1288;25418;-87
2024/02/18 12:10:17;;;;;;;;;;;;;;;5.71;77.46;97937.16;108084;1283;22540;-88
2024/02/18 12:12:44;;;;;;;;;;;;;;;5.75;76.70;97930.85;108048;1288;27166;-86
2024/02/18 12:15:17;;;;;;;;;;;;;;;5.73;75.92;97929.79;108071;1287;22513;-86
2024/02/18 12:17:43;;;;;;;;;;;;;;;5.68;75.46;97922.07;108052;1284;22514;-86
2024/02/18 12:20:10;;;;;;;;;;;;;;;5.67;76.42;97921.45;108015;1281;22682;-87
2024/02/18 12:22:36;;;;;;;;;;;;;;;5.69;76.61;97913.70;108094;1289;22516;-87
2024/02/18 12:25:03;;;;;;;;;;;;;;;5.71;77.17;97905.34;108061;1281;22575;-87
2024/02/18 12:27:30;;;;;;;;;;;;;;;5.74;77.05;97908.23;108054;1288;22517;-87
2024/02/18 12:29:56;;;;;;;;;;;;;;;5.75;77.51;97904.67;108192;1281;23346;-87
2024/02/18 12:32:23;;;;;;;;;;;;;;;5.81;78.72;97905.62;108049;1284;23020;-87
2024/02/18 12:34:50;;;;;;;;;;;;;;;5.87;77.69;97899.51;108064;1283;22532;-87
2024/02/18 12:37:17;;;;;;;;;;;;;;;5.94;78.13;97892.63;108054;1288;27762;-87
2024/02/18 12:39:44;;;;;;;;;;;;;;;6.00;77.97;97889.57;108057;1287;26838;-87
2024/02/18 12:42:10;;;;;;;;;;;;;;;6.04;75.80;97888.63;108121;1289;22517;-87
2024/02/18 12:44:36;;;;;;;;;;;;;;;5.94;74.36;97884.17;108110;1287;22552;-87